createdAt,value
2019-03-05T00:02:03.883Z,5.60
2019-03-05T00:04:33.149Z,5.60
2019-03-05T00:07:02.267Z,5.60
2019-03-05T00:09:31.313Z,5.60
2019-03-05T00:12:00.525Z,5.60
2019-03-05T00:14:29.605Z,5.60
2019-03-05T00:16:58.687Z,5.50
2019-03-05T00:19:27.797Z,5.50
2019-03-05T00:21:57.010Z,5.40
2019-03-05T00:25:00.517Z,5.40
2019-03-05T00:27:30.809Z,5.30
2019-03-05T00:30:32.933Z,5.30
2019-03-05T00:33:07.555Z,5.30
2019-03-05T00:35:58.926Z,5.20
2019-03-05T00:38:36.885Z,5.20
2019-03-05T00:41:18.251Z,5.20
2019-03-05T00:43:55.995Z,5.20
2019-03-05T00:46:39.932Z,5.20
2019-03-05T00:49:17.978Z,5.20
2019-03-05T00:52:05.275Z,5.20
2019-03-05T00:54:42.980Z,5.20
2019-03-05T00:57:18.065Z,5.30
2019-03-05T00:59:55.858Z,5.30
2019-03-05T01:02:40.040Z,5.30
2019-03-05T01:05:45.956Z,5.30
2019-03-05T01:08:15.385Z,5.30
2019-03-05T01:10:44.474Z,5.30
2019-03-05T01:13:13.643Z,5.30
2019-03-05T01:15:42.740Z,5.30
2019-03-05T01:18:11.885Z,5.40
2019-03-05T01:20:40.892Z,5.40
2019-03-05T01:23:09.934Z,5.40
2019-03-05T01:25:39.264Z,5.40
2019-03-05T01:28:08.265Z,5.40
2019-03-05T01:30:45.623Z,5.50
2019-03-05T01:33:16.215Z,5.40
2019-03-05T01:35:52.902Z,5.40
2019-03-05T01:38:22.028Z,5.50
2019-03-05T01:40:52.784Z,5.50
2019-03-05T01:43:21.816Z,5.60
2019-03-05T01:45:50.987Z,5.70
2019-03-05T01:48:20.254Z,5.80
2019-03-05T01:50:49.304Z,5.80
2019-03-05T01:53:18.268Z,5.90
2019-03-05T01:55:47.374Z,5.90
2019-03-05T01:58:16.450Z,5.90
2019-03-05T02:00:45.407Z,6.00
2019-03-05T02:03:14.615Z,6.00
2019-03-05T02:05:43.986Z,6.10
2019-03-05T02:08:13.054Z,6.10
2019-03-05T02:10:42.270Z,6.20
2019-03-05T02:13:11.491Z,6.20
2019-03-05T02:15:40.521Z,6.20
2019-03-05T02:18:11.440Z,6.20
2019-03-05T02:20:40.616Z,6.30
2019-03-05T02:23:12.960Z,6.30
2019-03-05T02:25:56.957Z,6.30
2019-03-05T02:28:28.972Z,6.30
2019-03-05T02:31:12.594Z,6.20
2019-03-05T02:34:08.929Z,6.30
2019-03-05T02:36:49.456Z,6.30
2019-03-05T02:39:55.937Z,6.30
2019-03-05T02:42:44.535Z,6.40
2019-03-05T02:45:31.443Z,6.30
2019-03-05T02:48:10.891Z,6.30
2019-03-05T02:50:54.815Z,6.30
2019-03-05T02:53:48.446Z,6.40
2019-03-05T02:56:42.967Z,6.30
2019-03-05T02:59:10.848Z,6.20
2019-03-05T03:01:41.517Z,6.00
2019-03-05T03:04:12.224Z,6.00
2019-03-05T03:06:41.282Z,6.00
2019-03-05T03:09:25.125Z,5.80
2019-03-05T03:11:54.170Z,5.90
2019-03-05T03:14:23.403Z,5.70
2019-03-05T03:16:52.844Z,5.70
2019-03-05T03:19:21.852Z,5.60
2019-03-05T03:21:50.816Z,5.70
2019-03-05T03:24:19.838Z,5.70
2019-03-05T03:26:48.781Z,5.60
2019-03-05T03:29:17.841Z,5.70
2019-03-05T03:31:47.042Z,5.80
2019-03-05T03:34:16.339Z,5.70
2019-03-05T03:36:45.571Z,5.80
2019-03-05T03:39:14.822Z,5.80
2019-03-05T03:41:43.784Z,5.70
2019-03-05T03:44:12.890Z,5.70
2019-03-05T03:46:41.826Z,5.80
2019-03-05T03:49:10.787Z,5.80
2019-03-05T03:51:39.730Z,5.80
2019-03-05T03:54:08.843Z,5.70
2019-03-05T03:56:38.074Z,5.70
2019-03-05T03:59:07.191Z,5.80
2019-03-05T04:01:36.197Z,5.70
2019-03-05T04:04:05.184Z,5.70
2019-03-05T04:06:34.282Z,5.70
2019-03-05T04:09:04.819Z,5.70
2019-03-05T04:11:33.762Z,5.70
2019-03-05T04:14:04.399Z,5.70
2019-03-05T04:16:33.759Z,5.70
2019-03-05T04:19:04.348Z,5.70
2019-03-05T04:21:33.453Z,5.70
2019-03-05T04:24:02.666Z,5.60
2019-03-05T04:26:31.624Z,5.50
2019-03-05T04:29:00.597Z,5.50
2019-03-05T04:31:29.596Z,5.50
2019-03-05T04:33:58.698Z,5.60
2019-03-05T04:36:27.930Z,5.50
2019-03-05T04:38:56.982Z,5.50
2019-03-05T04:41:25.954Z,5.50
2019-03-05T04:43:55.116Z,5.50
2019-03-05T04:46:31.995Z,5.40
2019-03-05T04:49:19.407Z,5.30
2019-03-05T04:51:55.945Z,5.40
2019-03-05T04:54:25.273Z,5.30
2019-03-05T04:56:54.285Z,5.30
2019-03-05T04:59:23.456Z,5.30
2019-03-05T05:01:52.836Z,5.20
2019-03-05T05:04:21.848Z,5.20
2019-03-05T05:06:50.899Z,5.20
2019-03-05T05:09:19.863Z,5.20
2019-03-05T05:11:48.988Z,5.30
2019-03-05T05:14:18.050Z,5.20
2019-03-05T05:16:47.179Z,5.20
2019-03-05T05:19:16.161Z,5.20
2019-03-05T05:21:45.330Z,5.20
2019-03-05T05:24:14.468Z,5.20
2019-03-05T05:26:44.410Z,5.20
2019-03-05T05:29:13.343Z,5.20
2019-03-05T05:31:42.336Z,5.20
2019-03-05T05:34:11.663Z,5.20
2019-03-05T05:36:40.658Z,5.30
2019-03-05T05:39:12.686Z,5.20
2019-03-05T05:41:41.710Z,5.30
2019-03-05T05:44:10.862Z,5.30
2019-03-05T05:46:39.921Z,5.30
2019-03-05T05:49:08.865Z,5.40
2019-03-05T05:51:37.869Z,5.30
2019-03-05T05:54:07.039Z,5.30
2019-03-05T05:56:36.003Z,5.30
2019-03-05T05:59:05.010Z,5.40
2019-03-05T06:01:33.980Z,5.40
2019-03-05T06:04:02.909Z,5.40
2019-03-05T06:06:32.020Z,5.40
2019-03-05T06:09:01.263Z,5.50
2019-03-05T06:11:30.397Z,5.40
2019-03-05T06:13:59.642Z,5.40
2019-03-05T06:16:28.945Z,5.40
2019-03-05T06:18:57.997Z,5.40
2019-03-05T06:21:27.203Z,5.50
2019-03-05T06:23:56.183Z,5.40
2019-03-05T06:26:25.498Z,5.40
2019-03-05T06:28:54.497Z,5.40
2019-03-05T06:31:23.729Z,5.40
2019-03-05T06:33:52.824Z,5.40
2019-03-05T06:36:21.917Z,5.40
2019-03-05T06:38:50.892Z,5.50
2019-03-05T06:41:20.112Z,5.50
2019-03-05T06:43:49.306Z,5.50
2019-03-05T06:46:18.388Z,5.50
2019-03-05T06:48:47.380Z,5.60
2019-03-05T06:51:16.333Z,5.60
2019-03-05T06:53:46.124Z,5.70
2019-03-05T06:56:17.081Z,5.80
2019-03-05T06:58:46.173Z,5.90
2019-03-05T07:01:16.834Z,6.00
2019-03-05T07:03:46.064Z,6.10
2019-03-05T07:06:39.443Z,6.10
2019-03-05T07:09:11.494Z,6.20
2019-03-05T07:12:01.446Z,6.30
2019-03-05T07:14:36.386Z,6.40
2019-03-05T07:17:28.149Z,6.50
2019-03-05T07:20:25.462Z,6.60
2019-03-05T07:23:19.800Z,7.10
2019-03-05T07:25:48.875Z,7.30
2019-03-05T07:28:17.882Z,7.20
2019-03-05T07:30:48.755Z,7.20
2019-03-05T07:33:18.065Z,7.20
2019-03-05T07:35:47.312Z,7.20
2019-03-05T07:38:20.329Z,7.20
2019-03-05T07:40:51.231Z,7.20
2019-03-05T07:43:20.492Z,7.10
2019-03-05T07:45:49.639Z,7.10
2019-03-05T07:48:18.737Z,7.10
2019-03-05T07:50:47.725Z,7.10
2019-03-05T07:53:16.683Z,7.20
2019-03-05T07:55:45.870Z,7.20
2019-03-05T07:58:14.834Z,7.20
2019-03-05T08:00:46.465Z,7.20
2019-03-05T08:03:16.926Z,7.30
2019-03-05T08:05:47.570Z,7.40
2019-03-05T08:08:53.127Z,7.30
2019-03-05T08:11:22.344Z,7.40
2019-03-05T08:14:28.056Z,7.40
2019-03-05T08:16:57.455Z,7.50
2019-03-05T08:19:26.396Z,7.60
2019-03-05T08:21:55.490Z,7.70
2019-03-05T08:24:24.508Z,7.70
2019-03-05T08:26:53.697Z,7.70
2019-03-05T08:29:22.823Z,7.80
2019-03-05T08:31:52.164Z,7.80
2019-03-05T08:34:21.273Z,7.90
2019-03-05T08:36:50.241Z,8.00
2019-03-05T08:39:19.393Z,8.00
2019-03-05T08:41:48.454Z,8.10
2019-03-05T08:44:17.852Z,8.10
2019-03-05T08:46:46.919Z,8.10
2019-03-05T08:49:17.947Z,8.20
2019-03-05T08:51:46.790Z,8.20
2019-03-05T08:54:26.001Z,8.30
2019-03-05T08:56:54.978Z,8.40
2019-03-05T08:59:25.260Z,8.40
2019-03-05T09:01:54.360Z,8.40
2019-03-05T09:04:23.500Z,8.40
2019-03-05T09:06:52.439Z,8.60
2019-03-05T09:09:21.421Z,8.70
2019-03-05T09:11:50.777Z,8.70
2019-03-05T09:14:19.817Z,8.80
2019-03-05T09:16:48.758Z,8.70
2019-03-05T09:19:17.908Z,8.80
2019-03-05T09:21:49.098Z,8.90
2019-03-05T09:24:17.525Z,9.10
2019-03-05T09:26:51.173Z,9.30
2019-03-05T09:29:20.261Z,9.50
2019-03-05T09:31:51.457Z,9.70
2019-03-05T09:34:20.587Z,9.70
2019-03-05T09:36:51.156Z,9.70
2019-03-05T09:39:23.064Z,9.90
2019-03-05T09:41:50.919Z,10.10
2019-03-05T09:44:20.042Z,10.20
2019-03-05T09:46:48.987Z,10.30
2019-03-05T09:49:19.888Z,10.40
2019-03-05T09:51:48.809Z,10.40
2019-03-05T09:54:18.041Z,10.30
2019-03-05T09:56:47.059Z,10.40
2019-03-05T09:59:16.136Z,10.60
2019-03-05T10:01:47.127Z,10.70
2019-03-05T10:04:16.096Z,10.80
2019-03-05T10:06:45.137Z,10.90
2019-03-05T10:09:14.148Z,11.00
2019-03-05T10:11:43.186Z,11.10
2019-03-05T10:14:12.201Z,11.10
2019-03-05T10:16:42.857Z,11.10
2019-03-05T10:19:12.163Z,11.30
2019-03-05T10:21:46.224Z,11.50
2019-03-05T10:24:12.186Z,11.50
2019-03-05T10:26:41.418Z,11.60
2019-03-05T10:29:10.421Z,11.60
2019-03-05T10:31:39.769Z,11.80
2019-03-05T10:34:08.806Z,11.90
2019-03-05T10:36:37.977Z,11.90
2019-03-05T10:39:30.034Z,11.60
2019-03-05T10:41:52.785Z,11.50
2019-03-05T10:44:21.837Z,11.60
2019-03-05T10:46:51.156Z,11.60
2019-03-05T10:49:20.471Z,11.40
2019-03-05T10:51:49.971Z,11.20
2019-03-05T10:54:18.942Z,11.20
2019-03-05T10:56:48.008Z,11.10
2019-03-05T10:59:17.164Z,11.20
2019-03-05T11:01:48.301Z,11.30
2019-03-05T11:04:17.517Z,11.20
2019-03-05T11:06:46.547Z,11.20
2019-03-05T11:09:18.701Z,11.40
2019-03-05T11:11:47.810Z,11.40
2019-03-05T11:14:16.924Z,11.50
2019-03-05T11:16:46.096Z,11.50
2019-03-05T11:19:15.086Z,11.50
2019-03-05T11:21:44.368Z,11.60
2019-03-05T11:24:13.548Z,11.60
2019-03-05T11:26:44.071Z,11.70
2019-03-05T11:29:13.322Z,11.80
2019-03-05T11:31:42.263Z,11.90
2019-03-05T11:34:13.248Z,12.10
2019-03-05T11:36:42.340Z,12.00
2019-03-05T11:39:11.628Z,11.90
2019-03-05T11:41:40.848Z,11.90
2019-03-05T11:44:10.057Z,11.90
2019-03-05T11:46:39.081Z,12.00
2019-03-05T11:49:08.152Z,11.90
2019-03-05T11:51:40.572Z,11.80
2019-03-05T11:54:09.710Z,11.90
2019-03-05T11:56:40.269Z,11.90
2019-03-05T11:59:09.336Z,12.10
2019-03-05T12:01:38.349Z,12.00
2019-03-05T12:04:07.406Z,12.10
2019-03-05T12:06:37.091Z,12.20
2019-03-05T12:09:07.685Z,12.20
2019-03-05T12:11:36.627Z,12.00
2019-03-05T12:14:05.745Z,12.00
2019-03-05T12:16:34.752Z,11.80
2019-03-05T12:19:04.107Z,11.70
2019-03-05T12:21:33.198Z,11.70
2019-03-05T12:24:02.600Z,11.50
2019-03-05T12:26:31.815Z,11.40
2019-03-05T12:29:00.821Z,11.30
2019-03-05T12:31:30.104Z,11.30
2019-03-05T12:33:59.265Z,11.50
2019-03-05T12:36:28.483Z,11.50
2019-03-05T12:38:57.523Z,11.40
2019-03-05T12:41:26.555Z,11.50
2019-03-05T12:43:55.547Z,11.50
2019-03-05T12:46:24.501Z,11.60
2019-03-05T12:48:53.629Z,11.60
2019-03-05T12:51:22.841Z,11.60
2019-03-05T12:53:52.052Z,11.70
2019-03-05T12:56:24.092Z,11.60
2019-03-05T12:58:52.123Z,11.70
2019-03-05T13:01:21.236Z,11.80
2019-03-05T13:03:50.232Z,11.80
2019-03-05T13:06:19.289Z,12.00
2019-03-05T13:08:48.232Z,12.20
2019-03-05T13:11:17.920Z,12.10
2019-03-05T13:13:47.560Z,12.20
2019-03-05T13:16:18.057Z,12.30
2019-03-05T13:18:47.310Z,12.30
2019-03-05T13:21:18.298Z,12.40
2019-03-05T13:23:47.356Z,12.30
2019-03-05T13:26:16.373Z,12.30
2019-03-05T13:28:45.379Z,12.40
2019-03-05T13:31:14.398Z,12.50
2019-03-05T13:33:43.373Z,12.40
2019-03-05T13:36:13.538Z,12.30
2019-03-05T13:38:45.187Z,12.20
2019-03-05T13:41:15.616Z,12.30
2019-03-05T13:43:44.264Z,12.20
2019-03-05T13:46:13.408Z,12.10
2019-03-05T13:48:58.367Z,12.00
2019-03-05T13:51:36.731Z,12.00
2019-03-05T13:54:36.680Z,12.00
2019-03-05T13:57:25.020Z,12.00
2019-03-05T13:59:54.202Z,12.10
2019-03-05T14:02:28.410Z,12.00
2019-03-05T14:05:12.593Z,12.00
2019-03-05T14:08:07.369Z,12.00
2019-03-05T14:10:36.465Z,11.90
2019-03-05T14:13:05.665Z,12.00
2019-03-05T14:15:35.056Z,12.00
2019-03-05T14:18:04.861Z,11.90
2019-03-05T14:20:35.160Z,11.90
2019-03-05T14:23:04.500Z,12.00
2019-03-05T14:25:33.853Z,12.00
2019-03-05T14:28:02.996Z,12.10
2019-03-05T14:30:32.103Z,12.20
2019-03-05T14:33:01.076Z,12.30
2019-03-05T14:35:30.346Z,12.30
2019-03-05T14:38:01.556Z,12.20
2019-03-05T14:40:31.038Z,12.20
2019-03-05T14:43:00.534Z,12.30
2019-03-05T14:45:31.647Z,12.10
2019-03-05T14:48:04.172Z,12.10
2019-03-05T14:50:32.433Z,12.00
2019-03-05T14:53:01.744Z,12.10
2019-03-05T14:55:30.832Z,12.10
2019-03-05T14:57:59.970Z,12.10
2019-03-05T15:00:28.971Z,12.00
2019-03-05T15:02:58.088Z,12.00
2019-03-05T15:05:30.275Z,12.00
2019-03-05T15:07:59.322Z,12.10
2019-03-05T15:10:28.736Z,12.10
2019-03-05T15:12:57.756Z,12.10
2019-03-05T15:15:29.397Z,12.10
2019-03-05T15:17:58.518Z,12.10
2019-03-05T15:20:27.629Z,12.20
2019-03-05T15:22:56.781Z,12.20
2019-03-05T15:25:25.847Z,12.20
2019-03-05T15:27:55.057Z,12.20
2019-03-05T15:30:28.773Z,12.20
2019-03-05T15:32:56.864Z,12.20
2019-03-05T15:35:26.072Z,12.10
2019-03-05T15:37:55.423Z,12.20
2019-03-05T15:40:24.542Z,12.20
2019-03-05T15:42:53.935Z,12.30
2019-03-05T15:45:23.807Z,12.30
2019-03-05T15:47:52.868Z,12.30
2019-03-05T15:50:31.633Z,12.40
2019-03-05T15:53:00.815Z,12.50
2019-03-05T15:55:30.049Z,12.50
2019-03-05T15:57:59.013Z,12.50
2019-03-05T16:00:31.766Z,12.60
2019-03-05T16:03:01.396Z,12.40
2019-03-05T16:05:30.526Z,12.30
2019-03-05T16:08:01.083Z,12.20
2019-03-05T16:10:30.656Z,12.20
2019-03-05T16:12:59.751Z,12.20
2019-03-05T16:15:28.809Z,12.20
2019-03-05T16:18:01.318Z,12.10
2019-03-05T16:20:29.767Z,12.00
2019-03-05T16:22:58.993Z,12.10
2019-03-05T16:25:28.070Z,12.10
2019-03-05T16:27:57.090Z,12.00
2019-03-05T16:30:48.636Z,11.90
2019-03-05T16:33:23.722Z,11.90
2019-03-05T16:36:12.957Z,11.90
2019-03-05T16:39:04.453Z,11.90
2019-03-05T16:41:53.441Z,11.90
2019-03-05T16:44:23.758Z,11.90
2019-03-05T16:46:56.878Z,11.90
2019-03-05T16:49:27.765Z,11.80
2019-03-05T16:51:58.449Z,11.80
2019-03-05T16:54:43.697Z,11.70
2019-03-05T16:57:23.100Z,11.60
2019-03-05T17:00:09.629Z,11.60
2019-03-05T17:02:43.577Z,11.70
2019-03-05T17:05:19.667Z,11.60
2019-03-05T17:07:50.322Z,11.70
2019-03-05T17:10:30.265Z,11.60
2019-03-05T17:12:59.417Z,11.60
2019-03-05T17:15:28.516Z,11.60
2019-03-05T17:17:57.766Z,11.70
2019-03-05T17:20:26.859Z,11.70
2019-03-05T17:22:55.993Z,11.70
2019-03-05T17:25:25.506Z,11.60
2019-03-05T17:27:54.608Z,11.60
2019-03-05T17:30:24.026Z,11.60
2019-03-05T17:32:53.110Z,11.50
2019-03-05T17:35:22.365Z,11.40
2019-03-05T17:37:51.588Z,11.40
2019-03-05T17:40:20.788Z,11.30
2019-03-05T17:42:50.244Z,11.30
2019-03-05T17:45:24.195Z,11.20
2019-03-05T17:47:53.592Z,11.20
2019-03-05T17:50:22.607Z,11.20
2019-03-05T17:52:51.591Z,11.10
2019-03-05T17:55:24.694Z,11.10
2019-03-05T17:57:54.207Z,11.10
2019-03-05T18:00:25.840Z,11.10
2019-03-05T18:02:54.960Z,11.10
2019-03-05T18:05:24.042Z,11.00
2019-03-05T18:07:53.232Z,11.10
2019-03-05T18:10:22.590Z,11.20
2019-03-05T18:12:51.632Z,11.20
2019-03-05T18:15:20.808Z,11.20
2019-03-05T18:17:49.890Z,11.20
2019-03-05T18:20:21.250Z,11.20
2019-03-05T18:22:50.829Z,11.20
2019-03-05T18:25:20.248Z,11.20
2019-03-05T18:27:49.378Z,11.20
2019-03-05T18:30:33.577Z,11.20
2019-03-05T18:33:02.623Z,11.20
2019-03-05T18:35:31.996Z,11.20
2019-03-05T18:38:01.030Z,11.20
2019-03-05T18:40:30.045Z,11.10
2019-03-05T18:42:59.322Z,11.10
2019-03-05T18:45:30.827Z,11.10
2019-03-05T18:48:00.073Z,11.10
2019-03-05T18:50:29.387Z,11.10
2019-03-05T18:52:59.671Z,11.10
2019-03-05T18:55:29.172Z,11.00
2019-03-05T18:57:58.191Z,11.00
2019-03-05T19:00:29.667Z,11.00
2019-03-05T19:03:13.142Z,11.00
2019-03-05T19:05:42.225Z,10.90
2019-03-05T19:08:11.360Z,10.90
2019-03-05T19:10:40.580Z,10.80
2019-03-05T19:13:09.519Z,10.80
2019-03-05T19:15:38.635Z,10.80
2019-03-05T19:18:08.287Z,10.70
2019-03-05T19:20:37.481Z,10.70
2019-03-05T19:23:06.618Z,10.60
2019-03-05T19:25:38.066Z,10.60
2019-03-05T19:28:07.419Z,10.50
2019-03-05T19:30:45.175Z,10.50
2019-03-05T19:33:14.321Z,10.50
2019-03-05T19:35:43.467Z,10.40
2019-03-05T19:38:12.504Z,10.40
2019-03-05T19:40:46.652Z,10.40
2019-03-05T19:43:15.677Z,10.40
2019-03-05T19:45:44.671Z,10.40
2019-03-05T19:48:13.764Z,10.40
2019-03-05T19:50:43.232Z,10.40
2019-03-05T19:53:12.322Z,10.40
2019-03-05T19:55:41.394Z,10.30
2019-03-05T19:58:14.151Z,10.30
2019-03-05T20:01:02.776Z,10.30
2019-03-05T20:03:31.984Z,10.30
2019-03-05T20:06:01.472Z,10.30
2019-03-05T20:08:39.447Z,10.30
2019-03-05T20:11:01.561Z,10.30
2019-03-05T20:13:30.996Z,10.30
2019-03-05T20:16:00.062Z,10.40
2019-03-05T20:18:29.141Z,10.30
2019-03-05T20:20:58.281Z,10.30
2019-03-05T20:23:27.321Z,10.30
2019-03-05T20:25:56.995Z,10.30
2019-03-05T20:28:26.273Z,10.30
2019-03-05T20:30:55.435Z,10.30
2019-03-05T20:33:24.547Z,10.30
2019-03-05T20:35:53.802Z,10.30
2019-03-05T20:38:23.189Z,10.30
2019-03-05T20:41:25.906Z,10.40
2019-03-05T20:43:55.045Z,10.40
2019-03-05T20:46:24.027Z,10.40
2019-03-05T20:48:53.190Z,10.40
2019-03-05T20:51:22.328Z,10.40
2019-03-05T20:53:51.859Z,10.40
2019-03-05T20:56:20.875Z,10.40
2019-03-05T20:58:50.207Z,10.40
2019-03-05T21:01:19.377Z,10.30
2019-03-05T21:03:48.558Z,10.30
2019-03-05T21:06:17.648Z,10.30
2019-03-05T21:08:48.288Z,10.30
2019-03-05T21:11:17.321Z,10.30
2019-03-05T21:13:46.603Z,10.30
2019-03-05T21:16:15.744Z,10.30
2019-03-05T21:18:45.057Z,10.30
2019-03-05T21:21:14.097Z,10.20
2019-03-05T21:23:43.133Z,10.20
2019-03-05T21:26:12.160Z,10.20
2019-03-05T21:28:41.205Z,10.20
2019-03-05T21:31:10.537Z,10.20
2019-03-05T21:33:39.503Z,10.20
2019-03-05T21:36:08.437Z,10.10
2019-03-05T21:38:37.481Z,10.10
2019-03-05T21:41:06.581Z,10.10
2019-03-05T21:43:35.555Z,10.10
2019-03-05T21:46:10.485Z,10.00
2019-03-05T21:48:39.552Z,10.00
2019-03-05T21:51:08.494Z,10.00
2019-03-05T21:53:37.677Z,9.90
2019-03-05T21:56:06.841Z,9.90
2019-03-05T21:58:36.031Z,9.90
2019-03-05T22:01:05.347Z,9.90
2019-03-05T22:03:34.385Z,9.80
2019-03-05T22:06:03.848Z,9.80
2019-03-05T22:08:32.773Z,9.80
2019-03-05T22:11:01.728Z,9.70
2019-03-05T22:13:30.742Z,9.70
2019-03-05T22:16:00.038Z,9.60
2019-03-05T22:18:29.754Z,9.60
2019-03-05T22:20:59.009Z,9.50
2019-03-05T22:23:27.956Z,9.40
2019-03-05T22:25:57.144Z,9.40
2019-03-05T22:28:26.168Z,9.30
2019-03-05T22:30:55.500Z,9.30
2019-03-05T22:33:24.626Z,9.20
2019-03-05T22:35:54.312Z,9.20
2019-03-05T22:38:23.263Z,9.10
2019-03-05T22:40:52.396Z,9.10
2019-03-05T22:43:21.521Z,9.00
2019-03-05T22:45:50.632Z,8.90
2019-03-05T22:48:19.638Z,8.90
2019-03-05T22:50:48.677Z,8.80
2019-03-05T22:53:17.664Z,8.80
2019-03-05T22:55:46.637Z,8.70
2019-03-05T22:58:15.584Z,8.70
2019-03-05T23:24:24.259Z,8.30
2019-03-05T23:26:53.471Z,8.20
2019-03-05T23:29:24.322Z,8.20
2019-03-05T23:31:53.453Z,8.10
2019-03-05T23:34:22.755Z,8.10
2019-03-05T23:36:51.818Z,8.10
2019-03-05T23:39:20.931Z,8.10
2019-03-05T23:41:50.149Z,8.10
2019-03-05T23:44:20.962Z,8.10
2019-03-05T23:46:50.050Z,8.00
2019-03-05T23:49:19.107Z,8.00
2019-03-05T23:51:48.257Z,7.90
2019-03-05T23:54:17.421Z,7.90
2019-03-05T23:56:46.537Z,7.90
2019-03-05T23:59:16.317Z,7.90
